createdAt,value
2022-10-30T00:00:24.249Z,101324.66
2022-10-30T00:05:27.005Z,101304.50
2022-10-30T00:10:29.157Z,101331.97
2022-10-30T00:15:31.456Z,101309.19
2022-10-30T00:20:36.199Z,101322.34
2022-10-30T00:25:38.511Z,101331.09
2022-10-30T00:30:41.074Z,101304.91
2022-10-30T00:35:49.438Z,101317.38
2022-10-30T00:40:51.894Z,101317.00
2022-10-30T00:45:54.517Z,101312.81
2022-10-30T00:51:00.466Z,101285.81
2022-10-30T00:56:07.513Z,101280.13
2022-10-30T01:01:16.844Z,101284.84
2022-10-30T01:06:20.090Z,101288.84
2022-10-30T01:11:22.398Z,101269.09
2022-10-30T01:16:43.468Z,101286.69
2022-10-30T01:22:07.510Z,101282.53
2022-10-30T01:27:28.400Z,101281.34
2022-10-30T01:32:40.458Z,101283.53
2022-10-30T01:37:58.507Z,101280.16
2022-10-30T01:43:01.336Z,101262.22
2022-10-30T01:48:41.952Z,101261.03
2022-10-30T01:53:54.303Z,101242.63
2022-10-30T01:59:16.142Z,101268.28
2022-10-30T02:04:18.605Z,101253.34
2022-10-30T02:09:20.936Z,101249.97
2022-10-30T02:14:32.171Z,101243.97
2022-10-30T02:19:35.115Z,101251.97
2022-10-30T02:24:37.491Z,101247.13
2022-10-30T02:29:39.724Z,101262.59
2022-10-30T02:34:43.482Z,101239.75
2022-10-30T02:39:45.801Z,101236.53
2022-10-30T02:44:48.157Z,101249.63
2022-10-30T02:49:50.318Z,101259.72
2022-10-30T02:54:52.689Z,101254.69
2022-10-30T02:59:54.924Z,101263.91
2022-10-30T03:04:57.131Z,101245.63
2022-10-30T03:09:59.345Z,101255.50
2022-10-30T03:15:01.516Z,101250.66
2022-10-30T03:20:03.930Z,101264.59
2022-10-30T03:25:06.644Z,101260.72
2022-10-30T03:30:09.725Z,101256.88
2022-10-30T03:35:11.947Z,101263.38
2022-10-30T03:40:14.221Z,101272.75
2022-10-30T03:45:16.602Z,101276.63
2022-10-30T03:50:18.828Z,101265.53
2022-10-30T03:55:21.555Z,101277.94
2022-10-30T04:00:23.786Z,101268.34
2022-10-30T04:05:27.909Z,101273.72
2022-10-30T04:10:30.370Z,101260.31
2022-10-30T04:15:33.537Z,101284.09
2022-10-30T04:20:35.764Z,101265.25
2022-10-30T04:25:37.944Z,101268.13
2022-10-30T04:30:40.944Z,101270.00
2022-10-30T04:35:43.507Z,101277.88
2022-10-30T04:40:45.900Z,101273.34
2022-10-30T04:45:48.085Z,101273.19
2022-10-30T04:50:50.382Z,101298.69
2022-10-30T04:55:56.333Z,101295.84
2022-10-30T05:01:06.333Z,101296.13
2022-10-30T05:06:13.815Z,101299.31
2022-10-30T05:11:16.767Z,101297.16
2022-10-30T05:16:19.106Z,101276.97
2022-10-30T05:21:21.446Z,101292.22
2022-10-30T05:26:24.236Z,101300.94
2022-10-30T05:31:26.420Z,101284.00
2022-10-30T05:36:28.670Z,101277.44
2022-10-30T05:41:31.159Z,101302.63
2022-10-30T05:46:33.522Z,101297.78
2022-10-30T05:51:38.160Z,101273.97
2022-10-30T05:56:42.823Z,101306.69
2022-10-30T06:06:52.290Z,101286.16
2022-10-30T06:11:54.952Z,101307.81
2022-10-30T06:16:57.280Z,101301.59
2022-10-30T06:21:59.604Z,101277.28
2022-10-30T06:27:01.960Z,101295.56
2022-10-30T06:32:06.720Z,101299.41
2022-10-30T06:37:09.403Z,101308.66
2022-10-30T06:42:11.635Z,101297.91
2022-10-30T06:47:13.932Z,101317.78
2022-10-30T06:52:16.105Z,101310.06
2022-10-30T06:57:18.346Z,101318.59
2022-10-30T07:02:20.839Z,101321.25
2022-10-30T07:07:23.135Z,101319.69
2022-10-30T07:12:25.472Z,101316.00
2022-10-30T07:17:27.696Z,101304.03
2022-10-30T07:22:29.903Z,101319.72
2022-10-30T07:27:32.099Z,101310.69
2022-10-30T07:32:34.443Z,101317.63
2022-10-30T07:37:36.683Z,101310.59
2022-10-30T07:42:38.865Z,101297.16
2022-10-30T07:47:42.441Z,101317.13
2022-10-30T07:52:44.852Z,101293.44
2022-10-30T07:57:47.126Z,101288.84
2022-10-30T08:02:52.907Z,101308.00
2022-10-30T08:07:55.662Z,101299.22
2022-10-30T08:12:58.072Z,101274.66
2022-10-30T08:18:00.708Z,101282.88
2022-10-30T08:23:03.351Z,101258.34
2022-10-30T08:28:07.353Z,101280.16
2022-10-30T08:33:16.044Z,101285.47
2022-10-30T08:38:18.455Z,101262.81
2022-10-30T08:43:21.231Z,101265.22
2022-10-30T08:48:23.584Z,101270.19
2022-10-30T08:53:25.970Z,101264.47
2022-10-30T08:58:28.722Z,101256.66
2022-10-30T09:03:30.913Z,101256.72
2022-10-30T09:08:33.096Z,101261.16
2022-10-30T09:13:36.004Z,101247.47
2022-10-30T09:18:38.420Z,101264.38
2022-10-30T09:23:42.760Z,101259.19
2022-10-30T09:28:45.074Z,101256.06
2022-10-30T09:33:47.300Z,101248.13
2022-10-30T09:38:49.505Z,101195.19
2022-10-30T09:44:22.716Z,101242.59
2022-10-30T09:49:38.451Z,101228.75
2022-10-30T09:54:57.057Z,101201.22
2022-10-30T10:00:02.241Z,101212.91
2022-10-30T10:05:21.986Z,101199.09
2022-10-30T10:10:30.217Z,101186.69
2022-10-30T10:15:35.539Z,101180.34
2022-10-30T10:20:44.446Z,101171.84
2022-10-30T10:25:54.692Z,101172.13
2022-10-30T10:31:13.249Z,101149.50
2022-10-30T10:36:29.947Z,101140.38
2022-10-30T10:42:06.247Z,101131.16
2022-10-30T10:47:51.777Z,101122.00
2022-10-30T10:53:02.318Z,101135.06
2022-10-30T10:58:26.087Z,101120.16
2022-10-30T11:03:48.451Z,101122.22
2022-10-30T11:08:53.905Z,101113.63
2022-10-30T11:13:56.596Z,101074.66
2022-10-30T11:19:02.036Z,101095.63
2022-10-30T11:24:04.397Z,101092.25
2022-10-30T11:29:15.667Z,101080.78
2022-10-30T11:34:17.799Z,101079.97
2022-10-30T11:39:35.849Z,101073.22
2022-10-30T11:44:50.911Z,101074.41
2022-10-30T11:49:57.501Z,101058.72
2022-10-30T11:55:30.550Z,101054.59
2022-10-30T12:00:36.646Z,101034.75
2022-10-30T12:05:42.427Z,101050.44
2022-10-30T12:10:51.806Z,101038.88
2022-10-30T12:16:09.458Z,101023.66
2022-10-30T12:21:20.366Z,101014.50
2022-10-30T12:26:23.800Z,101018.47
2022-10-30T12:31:32.116Z,101013.69
2022-10-30T12:36:42.626Z,101001.03
2022-10-30T12:42:03.287Z,101002.56
2022-10-30T12:47:51.492Z,100996.38
2022-10-30T12:53:03.029Z,100989.91
2022-10-30T12:58:33.970Z,100987.50
2022-10-30T13:03:58.661Z,100972.13
2022-10-30T13:09:24.588Z,100970.38
2022-10-30T13:14:37.851Z,100988.16
2022-10-30T13:19:47.935Z,100971.63
2022-10-30T13:25:05.353Z,100984.56
2022-10-30T13:30:11.536Z,100973.91
2022-10-30T13:35:22.871Z,100975.13
2022-10-30T13:40:47.389Z,100978.16
2022-10-30T13:46:11.790Z,100982.34
2022-10-30T13:51:35.805Z,100976.41
2022-10-30T13:56:38.578Z,100983.84
2022-10-30T14:01:49.789Z,100965.38
2022-10-30T14:07:17.088Z,100974.38
2022-10-30T14:12:43.941Z,100981.41
2022-10-30T14:18:24.863Z,100970.53
2022-10-30T14:23:36.051Z,100956.97
2022-10-30T14:28:40.724Z,100962.81
2022-10-30T14:33:56.635Z,100964.53
2022-10-30T14:39:29.286Z,100962.94
2022-10-30T14:44:53.487Z,100928.88
2022-10-30T14:49:58.693Z,100961.28
2022-10-30T14:55:26.476Z,100952.75
2022-10-30T15:00:48.931Z,100955.91
2022-10-30T15:05:51.644Z,100943.75
2022-10-30T15:11:29.652Z,100945.31
2022-10-30T15:16:37.269Z,100947.66
2022-10-30T15:21:44.704Z,100933.94
2022-10-30T15:26:59.761Z,100940.38
2022-10-30T15:32:04.879Z,100928.00
2022-10-30T15:37:13.630Z,100949.88
2022-10-30T15:42:16.599Z,100938.66
2022-10-30T15:47:21.396Z,100933.81
2022-10-30T15:52:32.984Z,100946.50
2022-10-30T16:03:14.213Z,100945.72
2022-10-30T16:08:20.511Z,100959.72
2022-10-30T16:13:32.446Z,100956.06
2022-10-30T16:18:36.618Z,100950.88
2022-10-30T16:23:47.873Z,100946.13
2022-10-30T16:28:50.237Z,100953.41
2022-10-30T16:33:53.125Z,100942.75
2022-10-30T16:38:56.543Z,100970.50
2022-10-30T16:44:27.859Z,100980.00
2022-10-30T16:49:32.921Z,100979.38
2022-10-30T16:54:41.197Z,100991.91
2022-10-30T16:59:51.336Z,100989.44
2022-10-30T17:04:58.575Z,100975.13
2022-10-30T17:10:01.055Z,100980.81
2022-10-30T17:15:13.909Z,100996.13
2022-10-30T17:20:23.955Z,100998.94
2022-10-30T17:25:37.138Z,100984.25
2022-10-30T17:30:43.899Z,100990.13
2022-10-30T17:35:46.120Z,100983.09
2022-10-30T17:40:49.451Z,100999.13
2022-10-30T17:45:51.964Z,100993.34
2022-10-30T17:50:54.776Z,100989.03
2022-10-30T17:56:04.746Z,100984.91
2022-10-30T18:01:07.373Z,101003.00
2022-10-30T18:06:17.777Z,101002.81
2022-10-30T18:11:22.841Z,100995.09
2022-10-30T18:16:25.824Z,101020.09
2022-10-30T18:21:28.125Z,101019.47
2022-10-30T18:26:30.720Z,101000.72
2022-10-30T18:31:32.989Z,101005.94
2022-10-30T18:36:35.173Z,100999.91
2022-10-30T18:41:41.162Z,101014.44
2022-10-30T18:46:46.027Z,100991.53
2022-10-30T18:51:48.411Z,100993.19
2022-10-30T18:56:50.594Z,100992.13
2022-10-30T19:01:53.129Z,101006.88
2022-10-30T19:06:55.620Z,101001.22
2022-10-30T19:11:58.029Z,100985.16
2022-10-30T19:17:00.400Z,100992.63
2022-10-30T19:22:02.740Z,101001.97
2022-10-30T19:27:05.168Z,101014.28
2022-10-30T19:32:07.364Z,101006.56
2022-10-30T19:37:10.161Z,101017.31
2022-10-30T19:42:12.343Z,101017.69
2022-10-30T19:47:14.733Z,101011.06
2022-10-30T19:52:17.164Z,101020.41
2022-10-30T19:57:19.411Z,101016.44
2022-10-30T20:02:21.765Z,101003.53
2022-10-30T20:07:24.235Z,101017.50
2022-10-30T20:12:26.524Z,101016.47
2022-10-30T20:17:29.049Z,101012.13
2022-10-30T20:22:31.266Z,101021.22
2022-10-30T20:27:33.523Z,101026.91
2022-10-30T20:32:35.880Z,101011.25
2022-10-30T20:37:38.153Z,101029.22
2022-10-30T20:42:40.634Z,100998.00
2022-10-30T20:47:43.917Z,100994.59
2022-10-30T20:52:46.926Z,101000.81
2022-10-30T20:57:49.151Z,100995.50
2022-10-30T21:02:51.750Z,101014.31
2022-10-30T21:07:54.269Z,100992.94
2022-10-30T21:12:58.921Z,100993.97
2022-10-30T21:18:04.440Z,101007.88
2022-10-30T21:23:07.138Z,101005.97
2022-10-30T21:28:09.368Z,101001.41
2022-10-30T21:33:11.681Z,100973.91
2022-10-30T21:38:13.942Z,101011.81
2022-10-30T21:43:16.153Z,101013.22
2022-10-30T21:48:18.488Z,100975.50
2022-10-30T21:53:20.848Z,100982.47
2022-10-30T21:58:23.229Z,100982.03
2022-10-30T22:03:25.821Z,100971.03
2022-10-30T22:08:28.250Z,100985.78
2022-10-30T22:13:30.583Z,100960.19
2022-10-30T22:18:33.657Z,100982.06
2022-10-30T22:23:37.857Z,100967.59
2022-10-30T22:28:40.093Z,100979.91
2022-10-30T22:33:44.372Z,100983.38
2022-10-30T22:38:48.011Z,100996.38
2022-10-30T22:43:51.562Z,100992.47
2022-10-30T22:48:53.982Z,100983.38
2022-10-30T22:54:01.307Z,100966.41
2022-10-30T22:59:06.373Z,100987.84
2022-10-30T23:04:11.317Z,100968.56
2022-10-30T23:09:21.681Z,100973.34
2022-10-30T23:14:27.376Z,100966.03
2022-10-30T23:19:30.039Z,100972.53
2022-10-30T23:24:32.434Z,100936.09
2022-10-30T23:29:34.607Z,100949.63
2022-10-30T23:34:36.814Z,100954.81
2022-10-30T23:39:38.993Z,100917.63
2022-10-30T23:44:41.219Z,100927.00
2022-10-30T23:49:43.463Z,100938.78
2022-10-30T23:54:45.943Z,100913.56
2022-10-30T23:59:48.390Z,100923.38
